sensor_id;sensor_type;location;lat;lon;timestamp;pressure;altitude;pressure_sealevel;temperature;humidity
42125;BME280;27787;44.594;11.046;2024-01-16T00:00:37;99929.63;;;3.96;100.00
42125;BME280;27787;44.594;11.046;2024-01-16T00:03:21;99930.69;;;4.04;100.00
42125;BME280;27787;44.594;11.046;2024-01-16T00:06:06;99935.09;;;4.08;100.00
42125;BME280;27787;44.594;11.046;2024-01-16T00:08:51;99942.00;;;4.05;100.00
42125;BME280;27787;44.594;11.046;2024-01-16T00:11:42;99936.59;;;3.96;100.00
42125;BME280;27787;44.594;11.046;2024-01-16T00:14:26;99932.00;;;3.85;100.00
42125;BME280;27787;44.594;11.046;2024-01-16T00:17:11;99938.03;;;3.81;100.00
42125;BME280;27787;44.594;11.046;2024-01-16T00:19:56;99938.91;;;3.82;100.00
42125;BME280;27787;44.594;11.046;2024-01-16T00:22:44;99942.25;;;3.76;100.00
42125;BME280;27787;44.594;11.046;2024-01-16T00:25:28;99941.06;;;3.62;100.00
42125;BME280;27787;44.594;11.046;2024-01-16T00:28:12;99946.16;;;3.54;100.00
42125;BME280;27787;44.594;11.046;2024-01-16T00:30:56;99953.13;;;3.55;100.00
42125;BME280;27787;44.594;11.046;2024-01-16T00:33:41;99953.34;;;3.65;100.00
42125;BME280;27787;44.594;11.046;2024-01-16T00:36:25;99962.94;;;3.67;100.00
42125;BME280;27787;44.594;11.046;2024-01-16T00:39:09;99966.59;;;3.75;100.00
42125;BME280;27787;44.594;11.046;2024-01-16T00:41:53;99961.56;;;3.84;100.00
42125;BME280;27787;44.594;11.046;2024-01-16T00:44:38;99974.88;;;3.95;100.00
42125;BME280;27787;44.594;11.046;2024-01-16T00:47:22;99982.78;;;4.00;100.00
42125;BME280;27787;44.594;11.046;2024-01-16T00:50:06;99988.88;;;4.00;100.00
42125;BME280;27787;44.594;11.046;2024-01-16T00:52:51;99987.28;;;4.05;100.00
42125;BME280;27787;44.594;11.046;2024-01-16T00:55:35;99989.13;;;4.11;100.00
42125;BME280;27787;44.594;11.046;2024-01-16T00:58:19;99990.88;;;4.12;100.00
42125;BME280;27787;44.594;11.046;2024-01-16T01:01:03;99995.25;;;4.13;100.00
42125;BME280;27787;44.594;11.046;2024-01-16T01:03:47;100007.44;;;4.14;100.00
42125;BME280;27787;44.594;11.046;2024-01-16T01:06:31;100006.50;;;4.09;100.00
42125;BME280;27787;44.594;11.046;2024-01-16T01:09:16;100013.44;;;4.08;99.88
42125;BME280;27787;44.594;11.046;2024-01-16T01:12:00;100020.44;;;4.09;99.65
42125;BME280;27787;44.594;11.046;2024-01-16T01:14:44;100018.66;;;4.08;99.79
42125;BME280;27787;44.594;11.046;2024-01-16T01:17:28;100026.28;;;3.99;99.54
42125;BME280;27787;44.594;11.046;2024-01-16T01:20:12;100028.69;;;3.90;100.00
42125;BME280;27787;44.594;11.046;2024-01-16T01:22:56;100040.69;;;3.80;100.00
42125;BME280;27787;44.594;11.046;2024-01-16T01:25:40;100048.34;;;3.74;100.00
42125;BME280;27787;44.594;11.046;2024-01-16T01:28:25;100046.75;;;3.79;100.00
42125;BME280;27787;44.594;11.046;2024-01-16T01:31:10;100056.38;;;3.82;100.00
42125;BME280;27787;44.594;11.046;2024-01-16T01:33:54;100059.00;;;3.83;100.00
42125;BME280;27787;44.594;11.046;2024-01-16T01:36:38;100055.63;;;3.88;100.00
42125;BME280;27787;44.594;11.046;2024-01-16T01:39:22;100067.91;;;3.92;100.00
42125;BME280;27787;44.594;11.046;2024-01-16T01:42:07;100078.41;;;3.95;100.00
42125;BME280;27787;44.594;11.046;2024-01-16T01:44:51;100086.25;;;3.95;100.00
42125;BME280;27787;44.594;11.046;2024-01-16T01:47:35;100093.00;;;3.87;100.00
42125;BME280;27787;44.594;11.046;2024-01-16T01:50:20;100085.09;;;3.82;99.88
42125;BME280;27787;44.594;11.046;2024-01-16T01:53:04;100098.78;;;3.73;100.00
42125;BME280;27787;44.594;11.046;2024-01-16T01:55:48;100094.34;;;3.69;100.00
42125;BME280;27787;44.594;11.046;2024-01-16T01:58:34;100090.19;;;3.77;100.00
42125;BME280;27787;44.594;11.046;2024-01-16T02:01:19;100103.94;;;3.70;100.00
42125;BME280;27787;44.594;11.046;2024-01-16T02:04:06;100097.81;;;3.68;100.00
42125;BME280;27787;44.594;11.046;2024-01-16T02:06:50;100106.56;;;3.70;100.00
42125;BME280;27787;44.594;11.046;2024-01-16T02:09:34;100119.53;;;3.67;100.00
42125;BME280;27787;44.594;11.046;2024-01-16T02:12:19;100116.69;;;3.58;100.00
42125;BME280;27787;44.594;11.046;2024-01-16T02:15:03;100116.72;;;3.60;100.00
42125;BME280;27787;44.594;11.046;2024-01-16T02:17:47;100112.63;;;3.69;100.00
42125;BME280;27787;44.594;11.046;2024-01-16T02:20:31;100125.09;;;3.81;100.00
42125;BME280;27787;44.594;11.046;2024-01-16T02:23:27;100121.00;;;3.92;100.00
42125;BME280;27787;44.594;11.046;2024-01-16T02:26:14;100114.09;;;3.94;100.00
42125;BME280;27787;44.594;11.046;2024-01-16T02:29:01;100123.63;;;3.92;100.00
42125;BME280;27787;44.594;11.046;2024-01-16T02:31:45;100132.00;;;3.79;100.00
42125;BME280;27787;44.594;11.046;2024-01-16T02:34:29;100132.66;;;3.70;100.00
42125;BME280;27787;44.594;11.046;2024-01-16T02:37:13;100135.88;;;3.60;100.00
42125;BME280;27787;44.594;11.046;2024-01-16T02:39:57;100135.81;;;3.57;100.00
42125;BME280;27787;44.594;11.046;2024-01-16T02:42:42;100146.25;;;3.57;100.00
42125;BME280;27787;44.594;11.046;2024-01-16T02:45:26;100146.06;;;3.51;100.00
42125;BME280;27787;44.594;11.046;2024-01-16T02:48:11;100145.16;;;3.49;100.00
42125;BME280;27787;44.594;11.046;2024-01-16T02:50:55;100143.53;;;3.52;100.00
42125;BME280;27787;44.594;11.046;2024-01-16T02:53:39;100147.66;;;3.44;100.00
42125;BME280;27787;44.594;11.046;2024-01-16T02:56:23;100157.88;;;3.37;100.00
42125;BME280;27787;44.594;11.046;2024-01-16T02:59:09;100147.38;;;3.34;100.00
42125;BME280;27787;44.594;11.046;2024-01-16T03:01:53;100146.44;;;3.32;100.00
42125;BME280;27787;44.594;11.046;2024-01-16T03:04:37;100163.72;;;3.27;100.00
42125;BME280;27787;44.594;11.046;2024-01-16T03:07:22;100151.34;;;3.19;100.00
42125;BME280;27787;44.594;11.046;2024-01-16T03:10:06;100161.50;;;3.10;100.00
42125;BME280;27787;44.594;11.046;2024-01-16T03:12:50;100163.84;;;3.00;100.00
42125;BME280;27787;44.594;11.046;2024-01-16T03:15:34;100168.81;;;2.92;100.00
42125;BME280;27787;44.594;11.046;2024-01-16T03:18:18;100176.56;;;2.89;100.00
42125;BME280;27787;44.594;11.046;2024-01-16T03:21:03;100173.84;;;2.86;100.00
42125;BME280;27787;44.594;11.046;2024-01-16T03:23:47;100175.53;;;2.84;100.00
42125;BME280;27787;44.594;11.046;2024-01-16T03:26:31;100178.06;;;2.81;100.00
42125;BME280;27787;44.594;11.046;2024-01-16T03:29:16;100174.44;;;2.76;100.00
42125;BME280;27787;44.594;11.046;2024-01-16T03:32:00;100178.75;;;2.74;100.00
42125;BME280;27787;44.594;11.046;2024-01-16T03:34:45;100178.63;;;2.71;100.00
42125;BME280;27787;44.594;11.046;2024-01-16T03:37:29;100194.19;;;2.67;100.00
42125;BME280;27787;44.594;11.046;2024-01-16T03:40:13;100202.84;;;2.66;100.00
42125;BME280;27787;44.594;11.046;2024-01-16T03:42:57;100205.47;;;2.68;100.00
42125;BME280;27787;44.594;11.046;2024-01-16T03:45:41;100209.75;;;2.66;100.00
42125;BME280;27787;44.594;11.046;2024-01-16T03:48:26;100205.19;;;2.59;100.00
42125;BME280;27787;44.594;11.046;2024-01-16T03:51:10;100206.03;;;2.58;100.00
42125;BME280;27787;44.594;11.046;2024-01-16T03:53:54;100207.88;;;2.60;100.00
42125;BME280;27787;44.594;11.046;2024-01-16T03:56:39;100212.38;;;2.66;100.00
42125;BME280;27787;44.594;11.046;2024-01-16T03:59:24;100209.88;;;2.71;100.00
42125;BME280;27787;44.594;11.046;2024-01-16T04:02:07;100203.06;;;2.74;100.00
42125;BME280;27787;44.594;11.046;2024-01-16T04:04:51;100199.75;;;2.80;100.00
42125;BME280;27787;44.594;11.046;2024-01-16T04:07:36;100205.00;;;2.81;100.00
42125;BME280;27787;44.594;11.046;2024-01-16T04:10:20;100206.81;;;2.84;100.00
42125;BME280;27787;44.594;11.046;2024-01-16T04:13:04;100218.34;;;2.92;100.00
42125;BME280;27787;44.594;11.046;2024-01-16T04:15:48;100231.44;;;2.93;100.00
42125;BME280;27787;44.594;11.046;2024-01-16T04:18:36;100231.31;;;2.89;100.00
42125;BME280;27787;44.594;11.046;2024-01-16T04:21:23;100225.94;;;2.84;100.00
42125;BME280;27787;44.594;11.046;2024-01-16T04:24:07;100224.97;;;2.81;100.00
42125;BME280;27787;44.594;11.046;2024-01-16T04:26:51;100228.41;;;2.80;100.00
42125;BME280;27787;44.594;11.046;2024-01-16T04:29:36;100229.13;;;2.74;100.00
42125;BME280;27787;44.594;11.046;2024-01-16T04:32:21;100233.34;;;2.71;100.00
42125;BME280;27787;44.594;11.046;2024-01-16T04:35:05;100233.38;;;2.72;100.00
42125;BME280;27787;44.594;11.046;2024-01-16T04:37:49;100238.47;;;2.67;100.00
42125;BME280;27787;44.594;11.046;2024-01-16T04:40:34;100252.97;;;2.59;100.00
42125;BME280;27787;44.594;11.046;2024-01-16T04:43:18;100245.94;;;2.57;100.00
42125;BME280;27787;44.594;11.046;2024-01-16T04:46:02;100244.19;;;2.56;100.00
42125;BME280;27787;44.594;11.046;2024-01-16T04:48:47;100259.69;;;2.51;100.00
42125;BME280;27787;44.594;11.046;2024-01-16T04:51:30;100254.47;;;2.51;100.00
42125;BME280;27787;44.594;11.046;2024-01-16T04:54:14;100267.41;;;2.48;100.00
42125;BME280;27787;44.594;11.046;2024-01-16T04:56:58;100262.06;;;2.45;100.00
42125;BME280;27787;44.594;11.046;2024-01-16T04:59:42;100274.53;;;2.54;100.00
42125;BME280;27787;44.594;11.046;2024-01-16T05:02:27;100271.47;;;2.67;100.00
42125;BME280;27787;44.594;11.046;2024-01-16T05:05:11;100281.03;;;2.68;100.00
42125;BME280;27787;44.594;11.046;2024-01-16T05:07:55;100283.44;;;2.60;100.00
42125;BME280;27787;44.594;11.046;2024-01-16T05:10:39;100285.78;;;2.53;100.00
42125;BME280;27787;44.594;11.046;2024-01-16T05:13:24;100287.50;;;2.52;100.00
42125;BME280;27787;44.594;11.046;2024-01-16T05:16:08;100273.50;;;2.49;100.00
42125;BME280;27787;44.594;11.046;2024-01-16T05:18:52;100282.91;;;2.45;100.00
42125;BME280;27787;44.594;11.046;2024-01-16T05:21:36;100282.88;;;2.44;100.00
42125;BME280;27787;44.594;11.046;2024-01-16T05:24:20;100279.38;;;2.43;100.00
42125;BME280;27787;44.594;11.046;2024-01-16T05:27:04;100280.13;;;2.39;100.00
42125;BME280;27787;44.594;11.046;2024-01-16T05:29:49;100290.47;;;2.36;100.00
42125;BME280;27787;44.594;11.046;2024-01-16T05:32:33;100290.28;;;2.31;100.00
42125;BME280;27787;44.594;11.046;2024-01-16T05:35:19;100285.97;;;2.32;100.00
42125;BME280;27787;44.594;11.046;2024-01-16T05:38:03;100284.25;;;2.32;100.00
42125;BME280;27787;44.594;11.046;2024-01-16T05:40:48;100285.97;;;2.32;100.00
42125;BME280;27787;44.594;11.046;2024-01-16T05:43:32;100284.19;;;2.31;100.00
42125;BME280;27787;44.594;11.046;2024-01-16T05:46:18;100287.91;;;2.38;100.00
42125;BME280;27787;44.594;11.046;2024-01-16T05:49:02;100296.59;;;2.38;100.00
42125;BME280;27787;44.594;11.046;2024-01-16T05:51:47;100290.59;;;2.41;100.00
42125;BME280;27787;44.594;11.046;2024-01-16T05:54:31;100302.03;;;2.46;100.00
42125;BME280;27787;44.594;11.046;2024-01-16T05:57:15;100307.38;;;2.49;100.00
42125;BME280;27787;44.594;11.046;2024-01-16T05:59:59;100312.41;;;2.44;100.00
42125;BME280;27787;44.594;11.046;2024-01-16T06:02:49;100311.38;;;2.39;100.00
42125;BME280;27787;44.594;11.046;2024-01-16T06:05:33;100313.16;;;2.40;100.00
42125;BME280;27787;44.594;11.046;2024-01-16T06:08:17;100331.28;;;2.37;100.00
42125;BME280;27787;44.594;11.046;2024-01-16T06:11:01;100332.97;;;2.35;100.00
42125;BME280;27787;44.594;11.046;2024-01-16T06:13:45;100336.28;;;2.31;100.00
42125;BME280;27787;44.594;11.046;2024-01-16T06:16:29;100341.28;;;2.25;100.00
42125;BME280;27787;44.594;11.046;2024-01-16T06:19:13;100342.69;;;2.15;100.00
42125;BME280;27787;44.594;11.046;2024-01-16T06:21:59;100343.53;;;2.14;100.00
42125;BME280;27787;44.594;11.046;2024-01-16T06:24:43;100341.66;;;2.10;100.00
42125;BME280;27787;44.594;11.046;2024-01-16T06:27:27;100345.28;;;2.15;100.00
42125;BME280;27787;44.594;11.046;2024-01-16T06:30:12;100355.81;;;2.18;100.00
42125;BME280;27787;44.594;11.046;2024-01-16T06:32:57;100362.06;;;2.23;100.00
42125;BME280;27787;44.594;11.046;2024-01-16T06:35:41;100355.19;;;2.25;100.00
42125;BME280;27787;44.594;11.046;2024-01-16T06:38:25;100359.47;;;2.23;100.00
42125;BME280;27787;44.594;11.046;2024-01-16T06:41:09;100360.09;;;2.16;100.00
42125;BME280;27787;44.594;11.046;2024-01-16T06:43:53;100354.72;;;2.12;100.00
42125;BME280;27787;44.594;11.046;2024-01-16T06:46:38;100353.09;;;2.15;100.00
42125;BME280;27787;44.594;11.046;2024-01-16T06:49:22;100360.22;;;2.21;100.00
42125;BME280;27787;44.594;11.046;2024-01-16T06:52:07;100362.72;;;2.18;100.00
42125;BME280;27787;44.594;11.046;2024-01-16T06:54:52;100377.66;;;2.22;100.00
42125;BME280;27787;44.594;11.046;2024-01-16T06:57:36;100371.91;;;2.32;100.00
42125;BME280;27787;44.594;11.046;2024-01-16T07:00:20;100369.28;;;2.32;100.00
42125;BME280;27787;44.594;11.046;2024-01-16T07:03:07;100371.84;;;2.30;100.00
42125;BME280;27787;44.594;11.046;2024-01-16T07:05:51;100384.97;;;2.33;100.00
42125;BME280;27787;44.594;11.046;2024-01-16T07:08:35;100396.13;;;2.29;100.00
42125;BME280;27787;44.594;11.046;2024-01-16T07:11:19;100407.31;;;2.27;100.00
42125;BME280;27787;44.594;11.046;2024-01-16T07:14:07;100389.84;;;2.23;100.00
42125;BME280;27787;44.594;11.046;2024-01-16T07:16:51;100403.69;;;2.22;100.00
42125;BME280;27787;44.594;11.046;2024-01-16T07:19:35;100407.00;;;2.18;100.00
42125;BME280;27787;44.594;11.046;2024-01-16T07:22:19;100415.59;;;2.15;100.00
42125;BME280;27787;44.594;11.046;2024-01-16T07:25:04;100416.31;;;2.11;100.00
42125;BME280;27787;44.594;11.046;2024-01-16T07:27:48;100423.31;;;2.12;100.00
42125;BME280;27787;44.594;11.046;2024-01-16T07:30:33;100430.16;;;2.10;100.00
42125;BME280;27787;44.594;11.046;2024-01-16T07:33:17;100426.56;;;2.06;100.00
42125;BME280;27787;44.594;11.046;2024-01-16T07:36:01;100441.56;;;2.14;100.00
42125;BME280;27787;44.594;11.046;2024-01-16T07:38:46;100444.38;;;2.20;100.00
42125;BME280;27787;44.594;11.046;2024-01-16T07:41:30;100442.75;;;2.22;100.00
42125;BME280;27787;44.594;11.046;2024-01-16T07:44:14;100442.59;;;2.19;100.00
42125;BME280;27787;44.594;11.046;2024-01-16T07:46:58;100453.16;;;2.22;100.00
42125;BME280;27787;44.594;11.046;2024-01-16T07:49:42;100455.81;;;2.23;100.00
42125;BME280;27787;44.594;11.046;2024-01-16T07:52:27;100454.97;;;2.24;100.00
42125;BME280;27787;44.594;11.046;2024-01-16T07:55:12;100452.69;;;2.33;100.00
42125;BME280;27787;44.594;11.046;2024-01-16T07:57:56;100462.44;;;2.39;100.00
42125;BME280;27787;44.594;11.046;2024-01-16T08:00:40;100473.69;;;2.38;100.00
42125;BME280;27787;44.594;11.046;2024-01-16T08:03:25;100482.59;;;2.45;100.00
42125;BME280;27787;44.594;11.046;2024-01-16T08:06:09;100472.47;;;2.52;100.00
42125;BME280;27787;44.594;11.046;2024-01-16T08:08:53;100485.19;;;2.69;100.00
42125;BME280;27787;44.594;11.046;2024-01-16T08:11:38;100487.22;;;2.77;100.00
42125;BME280;27787;44.594;11.046;2024-01-16T08:14:23;100483.03;;;2.82;100.00
42125;BME280;27787;44.594;11.046;2024-01-16T08:17:07;100488.28;;;2.84;99.63
42125;BME280;27787;44.594;11.046;2024-01-16T08:19:52;100492.91;;;2.91;99.67
42125;BME280;27787;44.594;11.046;2024-01-16T08:22:37;100500.91;;;2.97;99.51
42125;BME280;27787;44.594;11.046;2024-01-16T08:25:21;100504.31;;;2.94;99.62
42125;BME280;27787;44.594;11.046;2024-01-16T08:28:06;100500.16;;;3.00;100.00
42125;BME280;27787;44.594;11.046;2024-01-16T08:30:49;100510.69;;;3.03;100.00
42125;BME280;27787;44.594;11.046;2024-01-16T08:33:34;100518.53;;;3.04;100.00
42125;BME280;27787;44.594;11.046;2024-01-16T08:36:18;100519.66;;;3.12;100.00
42125;BME280;27787;44.594;11.046;2024-01-16T08:39:02;100510.47;;;3.23;100.00
42125;BME280;27787;44.594;11.046;2024-01-16T08:41:46;100524.63;;;3.30;100.00
42125;BME280;27787;44.594;11.046;2024-01-16T08:44:30;100519.41;;;3.30;99.77
42125;BME280;27787;44.594;11.046;2024-01-16T08:47:14;100517.03;;;3.38;99.99
42125;BME280;27787;44.594;11.046;2024-01-16T08:49:58;100524.22;;;3.45;99.55
42125;BME280;27787;44.594;11.046;2024-01-16T08:52:43;100530.47;;;3.50;99.15
42125;BME280;27787;44.594;11.046;2024-01-16T08:55:26;100526.38;;;3.58;99.55
42125;BME280;27787;44.594;11.046;2024-01-16T08:58:10;100533.59;;;3.65;99.13
42125;BME280;27787;44.594;11.046;2024-01-16T09:00:54;100544.28;;;3.74;98.69
42125;BME280;27787;44.594;11.046;2024-01-16T09:03:39;100543.75;;;3.84;97.87
42125;BME280;27787;44.594;11.046;2024-01-16T09:06:23;100544.88;;;3.93;97.52
42125;BME280;27787;44.594;11.046;2024-01-16T09:09:07;100537.41;;;4.05;98.00
42125;BME280;27787;44.594;11.046;2024-01-16T09:11:51;100538.38;;;4.08;97.68
42125;BME280;27787;44.594;11.046;2024-01-16T09:14:35;100536.72;;;4.12;98.01
42125;BME280;27787;44.594;11.046;2024-01-16T09:17:20;100541.16;;;4.14;97.70
42125;BME280;27787;44.594;11.046;2024-01-16T09:20:06;100544.59;;;4.13;97.90
42125;BME280;27787;44.594;11.046;2024-01-16T09:22:50;100540.91;;;4.05;98.57
42125;BME280;27787;44.594;11.046;2024-01-16T09:25:35;100531.97;;;3.99;99.40
42125;BME280;27787;44.594;11.046;2024-01-16T09:28:19;100534.59;;;3.99;100.00
42125;BME280;27787;44.594;11.046;2024-01-16T09:31:05;100538.94;;;3.98;100.00
42125;BME280;27787;44.594;11.046;2024-01-16T09:33:49;100543.28;;;3.98;100.00
42125;BME280;27787;44.594;11.046;2024-01-16T09:36:33;100535.34;;;3.95;100.00
42125;BME280;27787;44.594;11.046;2024-01-16T09:39:19;100540.41;;;3.90;100.00
42125;BME280;27787;44.594;11.046;2024-01-16T09:42:03;100543.09;;;3.92;100.00
42125;BME280;27787;44.594;11.046;2024-01-16T09:44:48;100557.13;;;3.95;100.00
42125;BME280;27787;44.594;11.046;2024-01-16T09:47:34;100558.09;;;3.99;100.00
42125;BME280;27787;44.594;11.046;2024-01-16T09:50:19;100567.63;;;3.97;100.00
42125;BME280;27787;44.594;11.046;2024-01-16T09:53:04;100555.81;;;4.09;100.00
42125;BME280;27787;44.594;11.046;2024-01-16T09:55:50;100556.97;;;4.19;100.00
42125;BME280;27787;44.594;11.046;2024-01-16T09:58:36;100553.72;;;4.28;100.00
42125;BME280;27787;44.594;11.046;2024-01-16T10:01:21;100548.63;;;4.31;100.00
42125;BME280;27787;44.594;11.046;2024-01-16T10:04:07;100551.16;;;4.29;100.00
42125;BME280;27787;44.594;11.046;2024-01-16T10:06:52;100545.84;;;4.26;100.00
42125;BME280;27787;44.594;11.046;2024-01-16T10:09:40;100551.34;;;4.35;100.00
42125;BME280;27787;44.594;11.046;2024-01-16T10:12:25;100541.25;;;4.48;100.00
42125;BME280;27787;44.594;11.046;2024-01-16T10:15:10;100535.00;;;4.42;100.00
42125;BME280;27787;44.594;11.046;2024-01-16T10:17:55;100535.75;;;4.38;100.00
42125;BME280;27787;44.594;11.046;2024-01-16T10:20:39;100539.25;;;4.39;100.00
42125;BME280;27787;44.594;11.046;2024-01-16T10:23:28;100542.91;;;4.44;100.00
42125;BME280;27787;44.594;11.046;2024-01-16T10:26:13;100542.41;;;4.57;100.00
42125;BME280;27787;44.594;11.046;2024-01-16T10:29:03;100544.59;;;4.73;100.00
42125;BME280;27787;44.594;11.046;2024-01-16T10:31:48;100540.66;;;4.89;100.00
42125;BME280;27787;44.594;11.046;2024-01-16T10:34:32;100543.69;;;5.06;100.00
42125;BME280;27787;44.594;11.046;2024-01-16T10:37:16;100551.75;;;5.14;100.00
42125;BME280;27787;44.594;11.046;2024-01-16T10:40:01;100552.84;;;5.22;100.00
42125;BME280;27787;44.594;11.046;2024-01-16T10:42:46;100556.56;;;5.31;100.00
42125;BME280;27787;44.594;11.046;2024-01-16T10:45:31;100561.13;;;5.39;100.00
42125;BME280;27787;44.594;11.046;2024-01-16T10:48:16;100554.31;;;5.47;100.00
42125;BME280;27787;44.594;11.046;2024-01-16T10:51:01;100542.09;;;5.46;100.00
42125;BME280;27787;44.594;11.046;2024-01-16T10:53:47;100546.28;;;5.39;100.00
42125;BME280;27787;44.594;11.046;2024-01-16T10:56:32;100551.38;;;5.33;100.00
42125;BME280;27787;44.594;11.046;2024-01-16T10:59:25;100559.88;;;5.24;100.00
42125;BME280;27787;44.594;11.046;2024-01-16T11:02:20;100567.78;;;5.26;100.00
42125;BME280;27787;44.594;11.046;2024-01-16T11:05:06;100559.28;;;5.35;100.00
42125;BME280;27787;44.594;11.046;2024-01-16T11:07:50;100561.34;;;5.48;100.00
42125;BME280;27787;44.594;11.046;2024-01-16T11:10:35;100558.88;;;5.54;100.00
42125;BME280;27787;44.594;11.046;2024-01-16T11:13:21;100560.94;;;5.67;100.00
42125;BME280;27787;44.594;11.046;2024-01-16T11:16:07;100552.38;;;5.74;100.00
42125;BME280;27787;44.594;11.046;2024-01-16T11:18:52;100548.78;;;5.71;100.00
42125;BME280;27787;44.594;11.046;2024-01-16T11:21:37;100547.72;;;5.61;100.00
42125;BME280;27787;44.594;11.046;2024-01-16T11:24:22;100550.09;;;5.52;100.00
42125;BME280;27787;44.594;11.046;2024-01-16T11:27:06;100538.69;;;5.48;100.00
42125;BME280;27787;44.594;11.046;2024-01-16T11:29:50;100548.31;;;5.49;100.00
42125;BME280;27787;44.594;11.046;2024-01-16T11:35:32;100551.22;;;5.61;100.00
42125;BME280;27787;44.594;11.046;2024-01-16T11:38:16;100545.97;;;5.61;100.00
42125;BME280;27787;44.594;11.046;2024-01-16T11:41:02;100542.41;;;5.59;100.00
42125;BME280;27787;44.594;11.046;2024-01-16T11:43:45;100536.41;;;5.63;100.00
42125;BME280;27787;44.594;11.046;2024-01-16T11:47:02;100532.03;;;5.62;100.00
42125;BME280;27787;44.594;11.046;2024-01-16T11:49:47;100524.25;;;5.66;100.00
42125;BME280;27787;44.594;11.046;2024-01-16T11:52:44;100533.84;;;5.65;100.00
42125;BME280;27787;44.594;11.046;2024-01-16T11:55:31;100536.59;;;5.73;100.00
42125;BME280;27787;44.594;11.046;2024-01-16T12:01:14;100531.50;;;5.77;99.44
42125;BME280;27787;44.594;11.046;2024-01-16T12:04:04;100527.38;;;5.87;99.92
42125;BME280;27787;44.594;11.046;2024-01-16T12:06:57;100518.22;;;6.07;100.00
42125;BME280;27787;44.594;11.046;2024-01-16T12:09:42;100520.22;;;6.19;98.87
42125;BME280;27787;44.594;11.046;2024-01-16T12:12:26;100524.53;;;6.15;98.32
42125;BME280;27787;44.594;11.046;2024-01-16T12:15:21;100517.50;;;6.14;99.05
42125;BME280;27787;44.594;11.046;2024-01-16T12:18:05;100521.03;;;6.15;100.00
42125;BME280;27787;44.594;11.046;2024-01-16T12:20:49;100515.75;;;6.13;100.00
42125;BME280;27787;44.594;11.046;2024-01-16T12:23:34;100516.75;;;6.20;100.00
42125;BME280;27787;44.594;11.046;2024-01-16T12:26:22;100507.28;;;6.27;100.00
42125;BME280;27787;44.594;11.046;2024-01-16T12:29:06;100520.47;;;6.31;100.00
42125;BME280;27787;44.594;11.046;2024-01-16T12:32:04;100513.41;;;6.27;99.65
42125;BME280;27787;44.594;11.046;2024-01-16T12:34:49;100521.25;;;6.26;99.57
42125;BME280;27787;44.594;11.046;2024-01-16T12:37:33;100527.38;;;6.26;99.71
42125;BME280;27787;44.594;11.046;2024-01-16T12:40:18;100524.69;;;6.25;99.53
42125;BME280;27787;44.594;11.046;2024-01-16T12:43:03;100519.38;;;6.20;99.95
42125;BME280;27787;44.594;11.046;2024-01-16T12:45:57;100514.94;;;6.17;100.00
42125;BME280;27787;44.594;11.046;2024-01-16T12:48:41;100511.44;;;6.17;100.00
42125;BME280;27787;44.594;11.046;2024-01-16T12:51:25;100504.50;;;6.19;100.00
42125;BME280;27787;44.594;11.046;2024-01-16T12:54:13;100506.41;;;6.26;100.00
42125;BME280;27787;44.594;11.046;2024-01-16T12:56:58;100498.47;;;6.25;100.00
42125;BME280;27787;44.594;11.046;2024-01-16T12:59:43;100504.66;;;6.27;100.00
42125;BME280;27787;44.594;11.046;2024-01-16T13:02:26;100495.09;;;6.29;100.00
42125;BME280;27787;44.594;11.046;2024-01-16T13:05:15;100497.88;;;6.38;100.00
42125;BME280;27787;44.594;11.046;2024-01-16T13:08:01;100493.84;;;6.54;99.91
42125;BME280;27787;44.594;11.046;2024-01-16T13:11:05;100500.09;;;6.62;99.22
42125;BME280;27787;44.594;11.046;2024-01-16T13:14:01;100494.09;;;6.67;98.53
42125;BME280;27787;44.594;11.046;2024-01-16T13:16:48;100499.44;;;6.73;98.97
42125;BME280;27787;44.594;11.046;2024-01-16T13:19:32;100496.13;;;6.84;98.43
42125;BME280;27787;44.594;11.046;2024-01-16T13:22:17;100495.44;;;6.92;98.13
42125;BME280;27787;44.594;11.046;2024-01-16T13:25:01;100484.09;;;6.95;97.78
42125;BME280;27787;44.594;11.046;2024-01-16T13:27:46;100492.00;;;6.96;97.64
42125;BME280;27787;44.594;11.046;2024-01-16T13:30:31;100491.19;;;7.00;97.97
42125;BME280;27787;44.594;11.046;2024-01-16T13:33:15;100483.47;;;7.09;97.82
42125;BME280;27787;44.594;11.046;2024-01-16T13:36:00;100479.28;;;7.19;97.15
42125;BME280;27787;44.594;11.046;2024-01-16T13:38:44;100484.56;;;7.22;96.35
42125;BME280;27787;44.594;11.046;2024-01-16T13:41:28;100480.03;;;7.14;95.62
42125;BME280;27787;44.594;11.046;2024-01-16T13:44:13;100491.28;;;7.05;95.84
42125;BME280;27787;44.594;11.046;2024-01-16T13:47:01;100469.34;;;7.03;96.24
42125;BME280;27787;44.594;11.046;2024-01-16T13:49:45;100465.03;;;7.05;95.64
42125;BME280;27787;44.594;11.046;2024-01-16T13:52:31;100463.34;;;7.10;95.87
42125;BME280;27787;44.594;11.046;2024-01-16T13:55:16;100457.28;;;7.13;94.81
42125;BME280;27787;44.594;11.046;2024-01-16T13:58:00;100458.97;;;7.09;94.96
42125;BME280;27787;44.594;11.046;2024-01-16T14:00:45;100466.06;;;7.15;95.40
42125;BME280;27787;44.594;11.046;2024-01-16T14:03:31;100467.00;;;7.18;94.33
42125;BME280;27787;44.594;11.046;2024-01-16T14:06:15;100465.34;;;7.25;94.02
42125;BME280;27787;44.594;11.046;2024-01-16T14:09:01;100459.22;;;7.26;92.72
42125;BME280;27787;44.594;11.046;2024-01-16T14:11:46;100459.16;;;7.20;92.53
42125;BME280;27787;44.594;11.046;2024-01-16T14:14:31;100467.06;;;7.21;92.56
42125;BME280;27787;44.594;11.046;2024-01-16T14:17:15;100461.03;;;7.28;92.33
42125;BME280;27787;44.594;11.046;2024-01-16T14:19:59;100462.00;;;7.33;92.19